createdAt,value
2022-07-31T00:00:23.879Z,3.93
2022-07-31T00:02:51.641Z,4.23
2022-07-31T00:05:19.369Z,4.17
2022-07-31T00:07:47.265Z,4.10
2022-07-31T00:10:15.022Z,4.47
2022-07-31T00:12:44.214Z,4.07
2022-07-31T00:15:12.846Z,4.13
2022-07-31T00:17:40.909Z,4.30
2022-07-31T00:20:10.141Z,4.40
2022-07-31T00:22:37.801Z,4.50
2022-07-31T00:25:06.594Z,4.67
2022-07-31T00:27:34.243Z,3.90
2022-07-31T00:30:03.283Z,4.37
2022-07-31T00:32:30.913Z,4.33
2022-07-31T00:34:58.504Z,4.10
2022-07-31T00:37:26.117Z,4.13
2022-07-31T00:39:54.300Z,3.73
2022-07-31T00:42:23.037Z,4.17
2022-07-31T00:44:51.133Z,3.67
2022-07-31T00:47:23.907Z,4.20
2022-07-31T00:49:53.234Z,3.73
2022-07-31T00:52:21.130Z,3.70
2022-07-31T00:54:48.790Z,3.53
2022-07-31T00:57:16.471Z,3.77
2022-07-31T00:59:44.671Z,4.03
2022-07-31T01:02:12.404Z,3.80
2022-07-31T01:04:41.694Z,3.93
2022-07-31T01:07:12.352Z,4.10
2022-07-31T01:09:40.151Z,4.07
2022-07-31T01:12:12.980Z,4.00
2022-07-31T01:14:43.000Z,4.00
2022-07-31T01:17:10.886Z,3.70
2022-07-31T01:19:42.648Z,4.10
2022-07-31T01:22:33.000Z,3.90
2022-07-31T01:25:07.222Z,4.13
2022-07-31T01:27:51.472Z,3.73
2022-07-31T01:30:21.403Z,3.23
2022-07-31T01:32:50.601Z,3.50
2022-07-31T01:35:21.000Z,3.77
2022-07-31T01:37:51.658Z,3.60
2022-07-31T01:40:22.542Z,3.60
2022-07-31T01:42:55.250Z,3.50
2022-07-31T01:45:25.822Z,3.10
2022-07-31T01:47:54.409Z,3.37
2022-07-31T01:50:43.782Z,3.57
2022-07-31T01:53:10.847Z,3.67
2022-07-31T01:56:02.563Z,3.63
2022-07-31T01:58:28.303Z,3.50
2022-07-31T02:00:59.627Z,3.30
2022-07-31T02:03:43.582Z,4.20
2022-07-31T02:06:15.659Z,3.40
2022-07-31T02:08:45.352Z,3.47
2022-07-31T02:11:14.219Z,3.40
2022-07-31T02:13:41.969Z,3.20
2022-07-31T02:16:11.209Z,3.40
2022-07-31T02:18:38.997Z,3.60
2022-07-31T02:21:06.899Z,3.50
2022-07-31T02:23:34.760Z,3.20
2022-07-31T02:26:03.133Z,3.80
2022-07-31T02:28:31.949Z,3.70
2022-07-31T02:31:01.244Z,3.70
2022-07-31T02:33:31.517Z,3.70
2022-07-31T02:35:59.867Z,4.10
2022-07-31T02:38:28.253Z,3.80
2022-07-31T02:40:59.164Z,3.77
2022-07-31T02:43:27.627Z,3.73
2022-07-31T02:45:55.804Z,3.20
2022-07-31T02:48:23.882Z,2.90
2022-07-31T02:50:52.940Z,3.20
2022-07-31T02:53:21.717Z,2.93
2022-07-31T02:55:50.346Z,2.73
2022-07-31T02:58:17.938Z,3.20
2022-07-31T03:00:45.775Z,3.37
2022-07-31T03:03:13.427Z,2.87
2022-07-31T03:05:41.178Z,3.00
2022-07-31T03:08:10.448Z,2.90
2022-07-31T03:10:38.074Z,3.23
2022-07-31T03:13:06.644Z,2.90
2022-07-31T03:15:34.405Z,2.93
2022-07-31T03:18:02.268Z,3.13
2022-07-31T03:20:39.977Z,3.00
2022-07-31T03:23:07.734Z,2.87
2022-07-31T03:25:36.876Z,2.73
2022-07-31T03:28:04.693Z,3.37
2022-07-31T03:30:32.457Z,3.30
2022-07-31T03:33:02.754Z,3.00
2022-07-31T03:35:31.037Z,3.20
2022-07-31T03:37:58.757Z,3.33
2022-07-31T03:40:26.485Z,3.40
2022-07-31T03:42:56.590Z,3.13
2022-07-31T03:45:24.615Z,3.10
2022-07-31T03:47:52.269Z,3.00
2022-07-31T03:50:20.358Z,3.10
2022-07-31T03:52:48.594Z,3.20
2022-07-31T03:55:16.354Z,3.10
2022-07-31T03:57:44.653Z,2.97
2022-07-31T04:00:16.854Z,3.23
2022-07-31T04:02:45.029Z,3.30
2022-07-31T04:05:12.741Z,3.50
2022-07-31T04:07:40.339Z,3.90
2022-07-31T04:10:09.134Z,4.13
2022-07-31T04:12:36.730Z,3.13
2022-07-31T04:15:04.901Z,3.23
2022-07-31T04:17:33.927Z,3.70
2022-07-31T04:20:02.277Z,3.40
2022-07-31T04:22:33.185Z,3.90
2022-07-31T04:25:00.818Z,3.23
2022-07-31T04:27:28.583Z,3.20
2022-07-31T04:29:56.782Z,3.50
2022-07-31T04:32:25.425Z,3.13
2022-07-31T04:34:54.993Z,3.50
2022-07-31T04:37:22.661Z,3.43
2022-07-31T04:39:50.224Z,3.27
2022-07-31T04:42:17.882Z,3.30
2022-07-31T04:44:45.784Z,3.50
2022-07-31T04:47:13.931Z,3.40
2022-07-31T04:49:41.546Z,3.23
2022-07-31T04:52:10.651Z,3.50
2022-07-31T04:54:39.007Z,3.10
2022-07-31T04:57:06.656Z,1.90
2022-07-31T04:59:59.485Z,2.13
2022-07-31T05:02:22.138Z,2.10
2022-07-31T05:04:56.369Z,2.40
2022-07-31T05:07:28.839Z,2.33
2022-07-31T05:09:56.978Z,2.53
2022-07-31T05:12:24.845Z,2.53
2022-07-31T05:14:53.394Z,2.53
2022-07-31T05:17:21.041Z,2.53
2022-07-31T05:19:48.700Z,2.23
2022-07-31T05:22:16.309Z,2.60
2022-07-31T05:24:47.862Z,2.10
2022-07-31T05:27:15.501Z,2.40
2022-07-31T05:29:43.115Z,2.50
2022-07-31T05:32:10.913Z,2.23
2022-07-31T05:34:38.808Z,2.00
2022-07-31T05:37:06.476Z,2.50
2022-07-31T05:39:34.147Z,2.23
2022-07-31T05:42:03.797Z,2.17
2022-07-31T05:44:31.744Z,2.60
2022-07-31T05:49:28.839Z,2.00
2022-07-31T05:51:56.528Z,2.10
2022-07-31T05:54:24.157Z,2.10
2022-07-31T05:56:51.830Z,2.30
2022-07-31T05:59:20.882Z,2.30
2022-07-31T06:01:48.603Z,2.23
2022-07-31T06:04:16.622Z,2.70
2022-07-31T06:06:44.403Z,2.37
2022-07-31T06:09:12.141Z,2.10
2022-07-31T06:11:39.779Z,1.80
2022-07-31T06:14:08.177Z,2.10
2022-07-31T06:16:37.269Z,1.93
2022-07-31T06:19:05.085Z,2.00
2022-07-31T06:21:32.745Z,1.77
2022-07-31T06:24:00.386Z,1.90
2022-07-31T06:26:29.977Z,1.97
2022-07-31T06:28:57.590Z,1.63
2022-07-31T06:31:25.250Z,1.80
2022-07-31T06:33:54.309Z,1.70
2022-07-31T06:36:21.973Z,1.87
2022-07-31T06:38:49.562Z,1.70
2022-07-31T06:41:37.449Z,1.83
2022-07-31T06:44:05.699Z,1.80
2022-07-31T06:46:33.274Z,1.70
2022-07-31T06:49:06.779Z,1.90
2022-07-31T06:51:36.748Z,1.80
2022-07-31T06:54:07.174Z,2.00
2022-07-31T06:56:35.590Z,1.67
2022-07-31T06:59:04.463Z,1.80
2022-07-31T07:01:32.710Z,1.53
2022-07-31T07:04:02.195Z,1.80
2022-07-31T07:06:29.814Z,1.60
2022-07-31T07:08:57.522Z,2.00
2022-07-31T07:11:25.190Z,2.30
2022-07-31T07:13:52.834Z,1.60
2022-07-31T07:16:20.980Z,1.80
2022-07-31T07:18:48.628Z,2.07
2022-07-31T07:21:17.650Z,1.57
2022-07-31T07:23:45.195Z,1.77
2022-07-31T07:26:13.371Z,1.70
2022-07-31T07:28:41.189Z,1.60
2022-07-31T07:31:08.814Z,1.63
2022-07-31T07:33:39.898Z,1.77
2022-07-31T07:36:22.320Z,1.43
2022-07-31T07:38:55.237Z,1.60
2022-07-31T07:41:23.958Z,1.50
2022-07-31T07:43:52.454Z,1.83
2022-07-31T07:46:21.239Z,1.60
2022-07-31T07:48:50.824Z,1.70
2022-07-31T07:51:18.973Z,1.80
2022-07-31T07:53:46.614Z,1.40
2022-07-31T07:56:15.636Z,1.50
2022-07-31T07:58:43.326Z,1.97
2022-07-31T08:01:11.129Z,1.97
2022-07-31T08:03:48.493Z,1.40
2022-07-31T08:06:18.351Z,1.77
2022-07-31T08:08:45.997Z,1.87
2022-07-31T08:11:16.983Z,1.83
2022-07-31T08:13:49.780Z,2.00
2022-07-31T08:16:18.475Z,1.77
2022-07-31T08:18:46.127Z,1.90
2022-07-31T08:21:14.160Z,1.90
2022-07-31T08:23:42.136Z,1.90
2022-07-31T08:26:09.894Z,1.80
2022-07-31T08:28:40.507Z,2.00
2022-07-31T08:31:09.046Z,2.00
2022-07-31T08:33:37.109Z,1.70
2022-07-31T08:36:08.924Z,1.90
2022-07-31T08:38:36.991Z,1.93
2022-07-31T08:41:04.830Z,1.73
2022-07-31T08:44:01.801Z,1.80
2022-07-31T08:46:22.012Z,1.80
2022-07-31T08:48:53.325Z,1.60
2022-07-31T08:51:21.510Z,1.60
2022-07-31T08:53:49.894Z,1.60
2022-07-31T08:56:18.642Z,1.90
2022-07-31T08:58:46.827Z,1.80
2022-07-31T09:01:15.165Z,1.43
2022-07-31T09:03:44.537Z,1.80
2022-07-31T09:06:12.113Z,2.10
2022-07-31T09:08:39.785Z,1.87
2022-07-31T09:11:08.963Z,1.80
2022-07-31T09:13:37.133Z,1.70
2022-07-31T09:16:05.395Z,1.97
2022-07-31T09:18:33.209Z,2.30
2022-07-31T09:21:03.501Z,1.83
2022-07-31T09:23:32.101Z,1.57
2022-07-31T09:26:01.766Z,1.70
2022-07-31T09:28:34.422Z,1.80
2022-07-31T09:31:02.374Z,1.70
2022-07-31T09:33:30.825Z,1.97
2022-07-31T09:35:59.658Z,1.70
2022-07-31T09:38:33.434Z,1.60
2022-07-31T09:41:55.442Z,1.70
2022-07-31T09:44:00.942Z,1.70
2022-07-31T09:46:39.110Z,1.73
2022-07-31T09:49:07.415Z,1.60
2022-07-31T09:51:39.772Z,1.47
2022-07-31T09:54:09.847Z,1.83
2022-07-31T09:56:37.607Z,2.10
2022-07-31T09:59:06.707Z,1.60
2022-07-31T10:01:36.430Z,1.90
2022-07-31T10:04:06.174Z,1.60
2022-07-31T10:06:36.854Z,1.80
2022-07-31T10:09:05.845Z,1.60
2022-07-31T10:11:35.736Z,1.97
2022-07-31T10:14:04.149Z,1.77
2022-07-31T10:16:34.355Z,1.43
2022-07-31T10:19:03.148Z,1.80
2022-07-31T10:21:41.257Z,1.77
2022-07-31T10:24:11.520Z,1.70
2022-07-31T10:27:00.693Z,1.67
2022-07-31T10:29:32.417Z,1.93
2022-07-31T10:32:01.678Z,1.90
2022-07-31T10:34:29.631Z,1.70
2022-07-31T10:37:03.615Z,1.53
2022-07-31T10:39:34.880Z,1.73
2022-07-31T10:42:09.187Z,2.00
2022-07-31T10:44:41.552Z,2.20
2022-07-31T10:47:14.199Z,1.80
2022-07-31T10:49:43.050Z,1.70
2022-07-31T10:52:11.410Z,1.70
2022-07-31T10:54:40.657Z,1.43
2022-07-31T10:57:10.124Z,1.30
2022-07-31T10:59:41.692Z,1.53
2022-07-31T11:02:11.990Z,1.73
2022-07-31T11:04:40.601Z,1.80
2022-07-31T11:07:15.927Z,1.93
2022-07-31T11:09:50.679Z,2.20
2022-07-31T11:12:21.534Z,1.90
2022-07-31T11:14:49.155Z,1.70
2022-07-31T11:17:16.745Z,1.80
2022-07-31T11:20:06.806Z,1.60
2022-07-31T11:22:34.462Z,1.93
2022-07-31T11:25:02.229Z,2.00
2022-07-31T11:27:34.736Z,1.60
2022-07-31T11:30:12.407Z,1.40
2022-07-31T11:32:40.962Z,1.57
2022-07-31T11:35:09.290Z,1.70
2022-07-31T11:37:56.649Z,1.70
2022-07-31T11:40:27.230Z,1.80
2022-07-31T11:43:25.321Z,1.67
2022-07-31T11:45:49.599Z,1.60
2022-07-31T11:48:19.540Z,1.80
2022-07-31T11:50:48.688Z,1.80
2022-07-31T11:53:16.718Z,2.27
2022-07-31T11:55:49.130Z,2.10
2022-07-31T11:58:19.504Z,1.70
2022-07-31T12:00:51.232Z,1.60
2022-07-31T12:03:19.907Z,2.20
2022-07-31T12:05:48.870Z,1.80
2022-07-31T12:08:17.073Z,1.90
2022-07-31T12:10:45.733Z,1.60
2022-07-31T12:13:16.135Z,1.70
2022-07-31T12:15:56.457Z,1.80
2022-07-31T12:18:24.342Z,1.60
2022-07-31T12:20:55.378Z,1.90
2022-07-31T12:23:40.363Z,1.77
2022-07-31T12:26:08.982Z,1.80
2022-07-31T12:28:36.791Z,1.63
2022-07-31T12:31:05.735Z,1.65
2022-07-31T12:33:41.540Z,1.65
2022-07-31T12:36:16.843Z,1.60
2022-07-31T12:38:48.404Z,1.67
2022-07-31T12:41:17.170Z,1.60
2022-07-31T12:43:51.860Z,2.00
2022-07-31T12:46:23.062Z,2.00
2022-07-31T12:48:51.108Z,2.00
2022-07-31T12:51:44.269Z,2.20
2022-07-31T12:54:08.955Z,2.00
2022-07-31T12:56:37.073Z,2.10
2022-07-31T12:59:05.485Z,2.03
2022-07-31T13:01:35.002Z,1.88
2022-07-31T13:04:03.495Z,2.17
2022-07-31T13:06:31.819Z,2.15
2022-07-31T13:08:59.478Z,2.03
2022-07-31T13:11:28.890Z,2.15
2022-07-31T13:13:58.230Z,2.40
2022-07-31T13:16:25.989Z,2.00
2022-07-31T13:18:54.987Z,1.97
2022-07-31T13:21:22.817Z,2.10
2022-07-31T13:23:55.688Z,2.10
2022-07-31T13:26:24.212Z,2.20
2022-07-31T13:28:51.802Z,2.27
2022-07-31T13:31:19.842Z,2.43
2022-07-31T13:33:47.719Z,2.30
2022-07-31T13:36:16.678Z,2.50
2022-07-31T13:38:44.317Z,2.43
2022-07-31T13:41:25.795Z,2.43
2022-07-31T13:43:59.647Z,2.70
2022-07-31T13:46:29.332Z,2.40
2022-07-31T13:48:59.297Z,2.37
2022-07-31T13:51:29.199Z,2.67
2022-07-31T13:53:57.060Z,2.60
2022-07-31T13:56:38.573Z,2.43
2022-07-31T13:59:11.329Z,2.60
2022-07-31T14:02:03.406Z,2.80
2022-07-31T14:04:30.902Z,2.53
2022-07-31T14:07:03.451Z,2.60
2022-07-31T14:09:33.997Z,2.80
2022-07-31T14:12:04.304Z,3.03
2022-07-31T14:14:32.404Z,2.93
2022-07-31T14:17:00.002Z,2.80
2022-07-31T14:19:27.698Z,2.80
2022-07-31T14:21:56.733Z,2.70
2022-07-31T14:24:41.046Z,2.70
2022-07-31T14:27:08.706Z,2.95
2022-07-31T14:29:36.323Z,2.72
2022-07-31T14:32:04.519Z,2.80
2022-07-31T14:34:35.634Z,2.58
2022-07-31T14:37:04.694Z,2.70
2022-07-31T14:39:32.687Z,2.60
2022-07-31T14:42:02.352Z,2.80
2022-07-31T14:44:30.640Z,2.67
2022-07-31T14:46:58.303Z,2.40
2022-07-31T14:49:25.944Z,2.47
2022-07-31T14:52:13.446Z,2.42
2022-07-31T14:54:41.284Z,2.42
2022-07-31T14:57:10.241Z,2.53
2022-07-31T14:59:37.849Z,2.75
2022-07-31T15:02:05.945Z,2.75
2022-07-31T15:04:33.650Z,2.70
2022-07-31T15:07:32.379Z,2.58
2022-07-31T15:09:49.134Z,2.70
2022-07-31T15:12:19.715Z,2.80
2022-07-31T15:14:47.285Z,2.60
2022-07-31T15:17:14.845Z,2.90
2022-07-31T15:19:42.447Z,3.00
2022-07-31T15:22:17.168Z,2.83
2022-07-31T15:24:48.266Z,3.30
2022-07-31T15:27:18.839Z,2.88
2022-07-31T15:30:05.602Z,3.17
2022-07-31T15:32:35.080Z,3.03
2022-07-31T15:35:03.493Z,2.67
2022-07-31T15:37:31.117Z,3.00
2022-07-31T15:40:02.922Z,2.83
2022-07-31T15:42:33.348Z,2.60
2022-07-31T15:45:01.169Z,2.75
2022-07-31T15:47:29.071Z,2.53
2022-07-31T15:49:56.809Z,2.90
2022-07-31T15:52:24.555Z,2.33
2022-07-31T15:54:52.545Z,2.60
2022-07-31T15:57:20.565Z,2.72
2022-07-31T15:59:49.867Z,2.75
2022-07-31T16:02:17.746Z,2.70
2022-07-31T16:04:52.845Z,2.75
2022-07-31T16:08:29.024Z,2.50
2022-07-31T16:10:16.558Z,2.63
2022-07-31T16:12:45.241Z,2.20
2022-07-31T16:15:14.336Z,2.30
2022-07-31T16:17:42.184Z,2.40
2022-07-31T16:20:12.299Z,2.37
2022-07-31T16:22:41.810Z,2.53
2022-07-31T16:25:10.874Z,2.35
2022-07-31T16:27:39.332Z,2.60
2022-07-31T16:30:08.501Z,2.40
2022-07-31T16:32:37.523Z,2.50
2022-07-31T16:35:06.164Z,2.70
2022-07-31T16:37:52.626Z,2.40
2022-07-31T16:40:28.143Z,2.70
2022-07-31T16:43:01.048Z,2.60
2022-07-31T16:45:29.402Z,2.43
2022-07-31T16:47:58.664Z,2.10
2022-07-31T16:50:26.670Z,2.47
2022-07-31T16:52:55.260Z,2.20
2022-07-31T16:55:46.984Z,2.47
2022-07-31T16:58:11.892Z,1.90
2022-07-31T17:00:40.259Z,2.00
2022-07-31T17:03:59.052Z,1.80
2022-07-31T17:05:57.390Z,1.47
2022-07-31T17:08:25.107Z,1.70
2022-07-31T17:10:54.883Z,1.90
2022-07-31T17:13:23.548Z,1.70
2022-07-31T17:15:51.639Z,1.97
2022-07-31T17:18:25.005Z,1.70
2022-07-31T17:20:55.649Z,1.80
2022-07-31T17:23:43.664Z,1.80
2022-07-31T17:26:21.164Z,1.63
2022-07-31T17:28:49.561Z,1.77
2022-07-31T17:31:17.181Z,1.60
2022-07-31T17:33:59.087Z,1.63
2022-07-31T17:36:29.584Z,1.80
2022-07-31T17:38:57.637Z,1.47
2022-07-31T17:41:26.215Z,1.67
2022-07-31T17:43:54.439Z,1.80
2022-07-31T17:46:28.160Z,1.60
2022-07-31T17:49:05.039Z,1.50
2022-07-31T17:51:33.025Z,1.50
2022-07-31T17:54:00.940Z,1.90
2022-07-31T17:56:29.068Z,2.27
2022-07-31T17:59:03.651Z,2.47
2022-07-31T18:01:31.342Z,3.10
2022-07-31T18:03:59.023Z,2.67
2022-07-31T18:06:28.137Z,2.57
2022-07-31T18:08:55.754Z,2.70
2022-07-31T18:11:23.370Z,2.20
2022-07-31T18:13:51.766Z,2.43
2022-07-31T18:16:24.674Z,2.30
2022-07-31T18:18:54.427Z,2.30
2022-07-31T18:21:22.480Z,2.57
2022-07-31T18:23:51.601Z,3.00
2022-07-31T18:26:19.243Z,2.60
2022-07-31T18:28:46.895Z,2.67
2022-07-31T18:31:34.436Z,2.53
2022-07-31T18:34:02.891Z,2.37
2022-07-31T18:36:30.545Z,2.60
2022-07-31T18:38:59.822Z,2.47
2022-07-31T18:41:28.251Z,2.53
2022-07-31T18:43:56.500Z,2.50
2022-07-31T18:46:24.835Z,2.67
2022-07-31T18:48:55.368Z,2.87
2022-07-31T18:51:23.907Z,2.70
2022-07-31T18:53:52.095Z,2.63
2022-07-31T18:56:24.261Z,3.20
2022-07-31T18:58:52.545Z,3.20
2022-07-31T19:01:20.793Z,3.50
2022-07-31T19:03:48.885Z,4.37
2022-07-31T19:06:16.842Z,3.93
2022-07-31T19:08:44.565Z,3.80
2022-07-31T19:11:12.873Z,3.73
2022-07-31T19:13:42.019Z,3.93
2022-07-31T19:16:10.131Z,3.87
2022-07-31T19:18:40.148Z,3.60
2022-07-31T19:21:23.336Z,3.73
2022-07-31T19:23:55.862Z,3.63
2022-07-31T19:26:23.474Z,3.57
2022-07-31T19:28:52.526Z,3.60
2022-07-31T19:31:20.231Z,4.10
2022-07-31T19:33:48.064Z,3.70
2022-07-31T19:36:15.989Z,3.43
2022-07-31T19:38:45.190Z,3.63
2022-07-31T19:41:13.648Z,2.90
2022-07-31T19:43:41.358Z,3.53
2022-07-31T19:46:12.750Z,3.50
2022-07-31T19:48:42.888Z,3.30
2022-07-31T19:51:10.868Z,3.33
2022-07-31T19:53:38.553Z,3.00
2022-07-31T19:56:06.808Z,3.10
2022-07-31T19:58:35.379Z,2.73
2022-07-31T20:01:03.667Z,4.23
2022-07-31T20:03:32.864Z,3.57
2022-07-31T20:06:00.738Z,3.97
2022-07-31T20:08:32.851Z,3.93
2022-07-31T20:11:03.361Z,3.77
2022-07-31T20:13:32.088Z,3.43
2022-07-31T20:16:00.203Z,3.70
2022-07-31T20:18:29.126Z,4.60
2022-07-31T20:21:00.705Z,4.60
2022-07-31T20:23:28.848Z,5.13
2022-07-31T20:25:56.635Z,5.00
2022-07-31T20:28:24.417Z,5.63
2022-07-31T20:30:52.229Z,5.57
2022-07-31T20:33:20.189Z,5.53
2022-07-31T20:35:50.111Z,6.17
2022-07-31T20:38:19.780Z,6.30
2022-07-31T20:40:54.283Z,6.50
2022-07-31T20:43:23.486Z,7.30
2022-07-31T20:45:51.736Z,6.27
2022-07-31T20:48:21.021Z,5.77
2022-07-31T20:50:48.745Z,6.33
2022-07-31T20:53:16.545Z,5.27
2022-07-31T20:55:47.525Z,5.10
2022-07-31T20:58:15.405Z,5.17
2022-07-31T21:00:43.908Z,5.07
2022-07-31T21:03:11.539Z,5.10
2022-07-31T21:05:39.390Z,4.60
2022-07-31T21:08:07.711Z,5.37
2022-07-31T21:10:35.983Z,5.27
2022-07-31T21:13:05.288Z,5.23
2022-07-31T21:15:42.899Z,5.27
2022-07-31T21:18:12.266Z,5.20
2022-07-31T21:20:50.779Z,4.80
2022-07-31T21:23:22.076Z,4.90
2022-07-31T21:25:50.530Z,4.80
2022-07-31T21:28:19.786Z,4.80
2022-07-31T21:30:48.423Z,4.40
2022-07-31T21:33:17.041Z,4.87
2022-07-31T21:35:45.465Z,5.00
2022-07-31T21:38:15.025Z,4.50
2022-07-31T21:40:43.166Z,4.43
2022-07-31T21:43:11.790Z,4.47
2022-07-31T21:45:55.141Z,4.57
2022-07-31T21:48:26.899Z,4.33
2022-07-31T21:50:55.308Z,4.87
2022-07-31T21:53:23.071Z,4.83
2022-07-31T21:55:51.014Z,4.80
2022-07-31T21:58:18.945Z,4.70
2022-07-31T22:00:48.117Z,4.40
2022-07-31T22:03:16.268Z,4.23
2022-07-31T22:06:01.558Z,4.30
2022-07-31T22:08:29.203Z,4.43
2022-07-31T22:10:56.874Z,4.60
2022-07-31T22:13:24.525Z,4.53
2022-07-31T22:16:00.251Z,4.33
2022-07-31T22:18:29.109Z,4.33
2022-07-31T22:20:57.345Z,4.13
2022-07-31T22:23:25.398Z,4.13
2022-07-31T22:25:53.280Z,4.67
2022-07-31T22:28:22.304Z,4.53
2022-07-31T22:30:50.989Z,4.37
2022-07-31T22:33:20.526Z,4.60
2022-07-31T22:35:59.812Z,5.00
2022-07-31T22:38:28.695Z,4.93
2022-07-31T22:40:56.462Z,4.37
2022-07-31T22:44:10.245Z,4.07
2022-07-31T22:46:13.452Z,4.60
2022-07-31T22:48:42.657Z,4.67
2022-07-31T22:51:14.480Z,4.27
2022-07-31T22:53:43.163Z,4.43
2022-07-31T22:56:10.801Z,4.73
2022-07-31T22:58:38.431Z,4.80
2022-07-31T23:01:06.086Z,4.13
2022-07-31T23:03:33.727Z,4.70
2022-07-31T23:06:30.488Z,4.40
2022-07-31T23:08:53.576Z,4.30
2022-07-31T23:11:22.666Z,4.67
2022-07-31T23:13:50.314Z,4.10
2022-07-31T23:16:18.546Z,4.20
2022-07-31T23:18:46.197Z,4.30
2022-07-31T23:21:15.158Z,4.33
2022-07-31T23:23:48.572Z,4.30
2022-07-31T23:26:17.633Z,4.50
2022-07-31T23:28:45.253Z,4.60
2022-07-31T23:31:12.907Z,4.47
2022-07-31T23:33:40.683Z,4.80
2022-07-31T23:36:08.418Z,4.53
2022-07-31T23:38:37.383Z,4.77
2022-07-31T23:41:05.019Z,4.70
2022-07-31T23:43:31.657Z,4.40
2022-07-31T23:45:59.252Z,5.40
2022-07-31T23:48:29.275Z,5.17
2022-07-31T23:50:57.980Z,4.63
2022-07-31T23:53:25.670Z,4.30
2022-07-31T23:55:54.674Z,4.47
2022-07-31T23:58:22.366Z,4.67
